sensor_id;sensor_type;location;lat;lon;timestamp;P1;durP1;ratioP1;P2;durP2;ratioP2
16660;SDS011;8444;52.012;5.048;2024-02-26T00:00:00;4.43;;;3.50;;
16660;SDS011;8444;52.012;5.048;2024-02-26T00:02:25;5.67;;;4.00;;
16660;SDS011;8444;52.012;5.048;2024-02-26T00:04:50;5.40;;;3.63;;
16660;SDS011;8444;52.012;5.048;2024-02-26T00:07:16;5.47;;;3.63;;
16660;SDS011;8444;52.012;5.048;2024-02-26T00:09:41;7.33;;;3.77;;
16660;SDS011;8444;52.012;5.048;2024-02-26T00:12:06;4.90;;;3.53;;
16660;SDS011;8444;52.012;5.048;2024-02-26T00:14:32;4.17;;;3.30;;
16660;SDS011;8444;52.012;5.048;2024-02-26T00:16:57;4.63;;;3.17;;
16660;SDS011;8444;52.012;5.048;2024-02-26T00:19:22;6.13;;;4.17;;
16660;SDS011;8444;52.012;5.048;2024-02-26T00:21:47;5.37;;;3.90;;
16660;SDS011;8444;52.012;5.048;2024-02-26T00:24:13;6.27;;;3.90;;
16660;SDS011;8444;52.012;5.048;2024-02-26T00:26:38;7.53;;;3.90;;
16660;SDS011;8444;52.012;5.048;2024-02-26T00:29:03;5.40;;;3.40;;
16660;SDS011;8444;52.012;5.048;2024-02-26T00:31:29;4.87;;;3.43;;
16660;SDS011;8444;52.012;5.048;2024-02-26T00:33:54;6.23;;;3.57;;
16660;SDS011;8444;52.012;5.048;2024-02-26T00:36:19;4.70;;;3.53;;
16660;SDS011;8444;52.012;5.048;2024-02-26T00:38:44;4.30;;;3.33;;
16660;SDS011;8444;52.012;5.048;2024-02-26T00:41:15;5.17;;;3.77;;
16660;SDS011;8444;52.012;5.048;2024-02-26T00:43:40;5.23;;;3.93;;
16660;SDS011;8444;52.012;5.048;2024-02-26T00:46:07;3.70;;;3.23;;
16660;SDS011;8444;52.012;5.048;2024-02-26T00:48:32;5.57;;;3.80;;
16660;SDS011;8444;52.012;5.048;2024-02-26T00:50:57;5.40;;;4.00;;
16660;SDS011;8444;52.012;5.048;2024-02-26T00:53:23;4.13;;;3.23;;
16660;SDS011;8444;52.012;5.048;2024-02-26T00:55:49;5.30;;;3.40;;
16660;SDS011;8444;52.012;5.048;2024-02-26T00:58:15;3.83;;;3.30;;
16660;SDS011;8444;52.012;5.048;2024-02-26T01:00:40;3.27;;;2.97;;
16660;SDS011;8444;52.012;5.048;2024-02-26T01:03:05;5.90;;;3.80;;
16660;SDS011;8444;52.012;5.048;2024-02-26T01:05:30;6.80;;;3.23;;
16660;SDS011;8444;52.012;5.048;2024-02-26T01:07:56;5.37;;;3.77;;
16660;SDS011;8444;52.012;5.048;2024-02-26T01:10:21;4.57;;;3.83;;
16660;SDS011;8444;52.012;5.048;2024-02-26T01:12:46;4.70;;;3.60;;
16660;SDS011;8444;52.012;5.048;2024-02-26T01:15:12;7.97;;;3.80;;
16660;SDS011;8444;52.012;5.048;2024-02-26T01:17:37;7.30;;;3.90;;
16660;SDS011;8444;52.012;5.048;2024-02-26T01:20:04;6.73;;;3.70;;
16660;SDS011;8444;52.012;5.048;2024-02-26T01:22:29;7.30;;;3.43;;
16660;SDS011;8444;52.012;5.048;2024-02-26T01:24:54;5.87;;;3.20;;
16660;SDS011;8444;52.012;5.048;2024-02-26T01:27:21;5.83;;;4.57;;
16660;SDS011;8444;52.012;5.048;2024-02-26T01:29:51;4.37;;;3.30;;
16660;SDS011;8444;52.012;5.048;2024-02-26T01:32:16;4.33;;;3.30;;
16660;SDS011;8444;52.012;5.048;2024-02-26T01:34:41;4.20;;;3.53;;
16660;SDS011;8444;52.012;5.048;2024-02-26T01:37:07;3.53;;;2.80;;
16660;SDS011;8444;52.012;5.048;2024-02-26T01:39:32;3.33;;;2.80;;
16660;SDS011;8444;52.012;5.048;2024-02-26T01:41:57;5.37;;;3.87;;
16660;SDS011;8444;52.012;5.048;2024-02-26T01:44:22;4.53;;;3.67;;
16660;SDS011;8444;52.012;5.048;2024-02-26T01:46:48;4.27;;;3.50;;
16660;SDS011;8444;52.012;5.048;2024-02-26T01:49:13;6.30;;;3.27;;
16660;SDS011;8444;52.012;5.048;2024-02-26T01:51:39;5.03;;;3.40;;
16660;SDS011;8444;52.012;5.048;2024-02-26T01:54:04;4.37;;;3.60;;
16660;SDS011;8444;52.012;5.048;2024-02-26T01:56:31;5.77;;;3.50;;
16660;SDS011;8444;52.012;5.048;2024-02-26T01:58:57;4.47;;;3.10;;
16660;SDS011;8444;52.012;5.048;2024-02-26T02:01:23;4.33;;;3.23;;
16660;SDS011;8444;52.012;5.048;2024-02-26T02:03:50;4.30;;;3.13;;
16660;SDS011;8444;52.012;5.048;2024-02-26T02:06:15;5.83;;;3.60;;
16660;SDS011;8444;52.012;5.048;2024-02-26T02:08:40;7.03;;;3.40;;
16660;SDS011;8444;52.012;5.048;2024-02-26T02:11:06;4.47;;;3.70;;
16660;SDS011;8444;52.012;5.048;2024-02-26T02:13:32;5.20;;;3.63;;
16660;SDS011;8444;52.012;5.048;2024-02-26T02:15:57;4.53;;;3.73;;
16660;SDS011;8444;52.012;5.048;2024-02-26T02:18:22;4.40;;;3.60;;
16660;SDS011;8444;52.012;5.048;2024-02-26T02:20:47;4.77;;;3.73;;
16660;SDS011;8444;52.012;5.048;2024-02-26T02:23:13;4.33;;;3.47;;
16660;SDS011;8444;52.012;5.048;2024-02-26T02:25:39;6.00;;;3.50;;
16660;SDS011;8444;52.012;5.048;2024-02-26T02:28:04;4.30;;;3.30;;
16660;SDS011;8444;52.012;5.048;2024-02-26T02:30:30;4.43;;;3.30;;
16660;SDS011;8444;52.012;5.048;2024-02-26T02:32:56;5.97;;;4.23;;
16660;SDS011;8444;52.012;5.048;2024-02-26T02:35:22;4.43;;;3.40;;
16660;SDS011;8444;52.012;5.048;2024-02-26T02:37:47;5.13;;;3.57;;
16660;SDS011;8444;52.012;5.048;2024-02-26T02:40:12;13.97;;;3.73;;
16660;SDS011;8444;52.012;5.048;2024-02-26T02:42:38;5.03;;;3.83;;
16660;SDS011;8444;52.012;5.048;2024-02-26T02:45:03;4.90;;;3.70;;
16660;SDS011;8444;52.012;5.048;2024-02-26T02:47:28;4.63;;;3.57;;
16660;SDS011;8444;52.012;5.048;2024-02-26T02:49:54;5.60;;;4.07;;
16660;SDS011;8444;52.012;5.048;2024-02-26T02:52:19;5.73;;;3.73;;
16660;SDS011;8444;52.012;5.048;2024-02-26T02:54:44;5.33;;;4.03;;
16660;SDS011;8444;52.012;5.048;2024-02-26T02:57:09;6.07;;;4.20;;
16660;SDS011;8444;52.012;5.048;2024-02-26T02:59:35;10.53;;;4.33;;
16660;SDS011;8444;52.012;5.048;2024-02-26T03:02:01;8.53;;;4.03;;
16660;SDS011;8444;52.012;5.048;2024-02-26T03:04:26;7.30;;;3.97;;
16660;SDS011;8444;52.012;5.048;2024-02-26T03:06:51;4.60;;;3.60;;
16660;SDS011;8444;52.012;5.048;2024-02-26T03:09:16;5.70;;;4.27;;
16660;SDS011;8444;52.012;5.048;2024-02-26T03:11:41;4.53;;;3.60;;
16660;SDS011;8444;52.012;5.048;2024-02-26T03:14:06;7.17;;;3.43;;
16660;SDS011;8444;52.012;5.048;2024-02-26T03:16:32;5.20;;;3.93;;
16660;SDS011;8444;52.012;5.048;2024-02-26T03:18:57;7.40;;;4.10;;
16660;SDS011;8444;52.012;5.048;2024-02-26T03:21:22;7.03;;;4.10;;
16660;SDS011;8444;52.012;5.048;2024-02-26T03:23:47;5.20;;;3.57;;
16660;SDS011;8444;52.012;5.048;2024-02-26T03:26:13;5.33;;;3.80;;
16660;SDS011;8444;52.012;5.048;2024-02-26T03:28:39;7.57;;;4.87;;
16660;SDS011;8444;52.012;5.048;2024-02-26T03:31:04;4.93;;;3.73;;
16660;SDS011;8444;52.012;5.048;2024-02-26T03:33:30;5.57;;;4.33;;
16660;SDS011;8444;52.012;5.048;2024-02-26T03:35:55;5.17;;;3.80;;
16660;SDS011;8444;52.012;5.048;2024-02-26T03:38:20;5.47;;;3.90;;
16660;SDS011;8444;52.012;5.048;2024-02-26T03:40:45;5.93;;;4.40;;
16660;SDS011;8444;52.012;5.048;2024-02-26T03:43:10;5.20;;;3.93;;
16660;SDS011;8444;52.012;5.048;2024-02-26T03:45:36;6.07;;;4.10;;
16660;SDS011;8444;52.012;5.048;2024-02-26T03:48:01;5.00;;;4.00;;
16660;SDS011;8444;52.012;5.048;2024-02-26T03:50:26;4.50;;;3.60;;
16660;SDS011;8444;52.012;5.048;2024-02-26T03:52:51;5.13;;;3.47;;
16660;SDS011;8444;52.012;5.048;2024-02-26T03:55:16;6.30;;;4.50;;
16660;SDS011;8444;52.012;5.048;2024-02-26T03:57:46;6.37;;;4.33;;
16660;SDS011;8444;52.012;5.048;2024-02-26T04:00:11;9.50;;;4.63;;
16660;SDS011;8444;52.012;5.048;2024-02-26T04:02:36;6.17;;;4.00;;
16660;SDS011;8444;52.012;5.048;2024-02-26T04:05:02;5.93;;;4.60;;
16660;SDS011;8444;52.012;5.048;2024-02-26T04:07:27;8.20;;;4.53;;
16660;SDS011;8444;52.012;5.048;2024-02-26T04:09:52;6.60;;;4.47;;
16660;SDS011;8444;52.012;5.048;2024-02-26T04:12:17;6.53;;;4.20;;
16660;SDS011;8444;52.012;5.048;2024-02-26T04:14:43;5.53;;;4.50;;
16660;SDS011;8444;52.012;5.048;2024-02-26T04:17:09;6.83;;;4.50;;
16660;SDS011;8444;52.012;5.048;2024-02-26T04:19:35;9.60;;;4.70;;
16660;SDS011;8444;52.012;5.048;2024-02-26T04:22:01;7.43;;;4.73;;
16660;SDS011;8444;52.012;5.048;2024-02-26T04:24:26;6.90;;;4.97;;
16660;SDS011;8444;52.012;5.048;2024-02-26T04:26:51;5.50;;;4.23;;
16660;SDS011;8444;52.012;5.048;2024-02-26T04:29:17;7.53;;;5.07;;
16660;SDS011;8444;52.012;5.048;2024-02-26T04:31:42;7.80;;;4.50;;
16660;SDS011;8444;52.012;5.048;2024-02-26T04:34:07;6.43;;;4.67;;
16660;SDS011;8444;52.012;5.048;2024-02-26T04:36:33;8.80;;;5.90;;
16660;SDS011;8444;52.012;5.048;2024-02-26T04:38:58;10.10;;;5.93;;
16660;SDS011;8444;52.012;5.048;2024-02-26T04:41:23;8.50;;;5.30;;
16660;SDS011;8444;52.012;5.048;2024-02-26T04:43:48;7.77;;;4.97;;
16660;SDS011;8444;52.012;5.048;2024-02-26T04:46:13;8.90;;;5.60;;
16660;SDS011;8444;52.012;5.048;2024-02-26T04:48:39;6.30;;;4.97;;
16660;SDS011;8444;52.012;5.048;2024-02-26T04:51:06;6.60;;;4.50;;
16660;SDS011;8444;52.012;5.048;2024-02-26T04:53:31;7.63;;;4.80;;
16660;SDS011;8444;52.012;5.048;2024-02-26T04:55:56;9.37;;;6.07;;
16660;SDS011;8444;52.012;5.048;2024-02-26T04:58:22;7.43;;;5.50;;
16660;SDS011;8444;52.012;5.048;2024-02-26T05:00:47;9.33;;;5.90;;
16660;SDS011;8444;52.012;5.048;2024-02-26T05:03:12;13.87;;;4.93;;
16660;SDS011;8444;52.012;5.048;2024-02-26T05:05:38;7.77;;;4.80;;
16660;SDS011;8444;52.012;5.048;2024-02-26T05:08:03;10.63;;;5.47;;
16660;SDS011;8444;52.012;5.048;2024-02-26T05:10:28;8.77;;;5.07;;
16660;SDS011;8444;52.012;5.048;2024-02-26T05:12:53;8.30;;;5.97;;
16660;SDS011;8444;52.012;5.048;2024-02-26T05:15:19;8.93;;;5.10;;
16660;SDS011;8444;52.012;5.048;2024-02-26T05:17:44;7.47;;;4.93;;
16660;SDS011;8444;52.012;5.048;2024-02-26T05:20:10;8.43;;;5.30;;
16660;SDS011;8444;52.012;5.048;2024-02-26T05:22:35;8.47;;;5.57;;
16660;SDS011;8444;52.012;5.048;2024-02-26T05:25:00;7.40;;;5.00;;
16660;SDS011;8444;52.012;5.048;2024-02-26T05:27:25;8.70;;;5.93;;
16660;SDS011;8444;52.012;5.048;2024-02-26T05:29:51;9.00;;;5.97;;
16660;SDS011;8444;52.012;5.048;2024-02-26T05:32:19;10.50;;;5.60;;
16660;SDS011;8444;52.012;5.048;2024-02-26T05:34:44;8.67;;;6.10;;
16660;SDS011;8444;52.012;5.048;2024-02-26T05:37:09;10.00;;;6.10;;
16660;SDS011;8444;52.012;5.048;2024-02-26T05:39:35;8.60;;;5.73;;
16660;SDS011;8444;52.012;5.048;2024-02-26T05:42:00;15.63;;;6.83;;
16660;SDS011;8444;52.012;5.048;2024-02-26T05:44:26;9.47;;;5.60;;
16660;SDS011;8444;52.012;5.048;2024-02-26T05:46:51;8.50;;;5.33;;
16660;SDS011;8444;52.012;5.048;2024-02-26T05:49:16;11.13;;;6.40;;
16660;SDS011;8444;52.012;5.048;2024-02-26T05:51:41;9.70;;;6.63;;
16660;SDS011;8444;52.012;5.048;2024-02-26T05:54:06;8.83;;;6.07;;
16660;SDS011;8444;52.012;5.048;2024-02-26T05:56:33;9.73;;;5.27;;
16660;SDS011;8444;52.012;5.048;2024-02-26T05:58:58;7.27;;;5.57;;
16660;SDS011;8444;52.012;5.048;2024-02-26T06:01:23;10.20;;;7.20;;
16660;SDS011;8444;52.012;5.048;2024-02-26T06:03:49;9.53;;;6.40;;
16660;SDS011;8444;52.012;5.048;2024-02-26T06:06:14;9.63;;;5.73;;
16660;SDS011;8444;52.012;5.048;2024-02-26T06:08:40;10.70;;;6.77;;
16660;SDS011;8444;52.012;5.048;2024-02-26T06:11:06;10.97;;;6.53;;
16660;SDS011;8444;52.012;5.048;2024-02-26T06:13:32;9.60;;;6.20;;
16660;SDS011;8444;52.012;5.048;2024-02-26T06:15:57;8.83;;;6.60;;
16660;SDS011;8444;52.012;5.048;2024-02-26T06:18:22;12.10;;;6.17;;
16660;SDS011;8444;52.012;5.048;2024-02-26T06:20:47;13.00;;;6.73;;
16660;SDS011;8444;52.012;5.048;2024-02-26T06:23:13;11.53;;;7.30;;
16660;SDS011;8444;52.012;5.048;2024-02-26T06:25:38;9.07;;;5.97;;
16660;SDS011;8444;52.012;5.048;2024-02-26T06:28:03;10.37;;;6.60;;
16660;SDS011;8444;52.012;5.048;2024-02-26T06:30:29;9.50;;;6.97;;
16660;SDS011;8444;52.012;5.048;2024-02-26T06:32:54;9.60;;;6.53;;
16660;SDS011;8444;52.012;5.048;2024-02-26T06:35:20;11.17;;;6.67;;
16660;SDS011;8444;52.012;5.048;2024-02-26T06:37:45;11.17;;;7.93;;
16660;SDS011;8444;52.012;5.048;2024-02-26T06:40:10;12.50;;;7.07;;
16660;SDS011;8444;52.012;5.048;2024-02-26T06:42:36;12.93;;;8.10;;
16660;SDS011;8444;52.012;5.048;2024-02-26T06:45:01;9.97;;;6.00;;
16660;SDS011;8444;52.012;5.048;2024-02-26T06:47:29;13.20;;;7.87;;
16660;SDS011;8444;52.012;5.048;2024-02-26T06:49:54;13.37;;;6.90;;
16660;SDS011;8444;52.012;5.048;2024-02-26T06:52:23;17.63;;;8.87;;
16660;SDS011;8444;52.012;5.048;2024-02-26T06:54:48;15.00;;;8.73;;
16660;SDS011;8444;52.012;5.048;2024-02-26T06:57:16;15.40;;;8.90;;
16660;SDS011;8444;52.012;5.048;2024-02-26T06:59:41;14.40;;;7.83;;
16660;SDS011;8444;52.012;5.048;2024-02-26T07:02:10;15.33;;;8.73;;
16660;SDS011;8444;52.012;5.048;2024-02-26T07:04:36;15.57;;;8.60;;
16660;SDS011;8444;52.012;5.048;2024-02-26T07:07:02;15.13;;;8.93;;
16660;SDS011;8444;52.012;5.048;2024-02-26T07:09:27;14.90;;;9.20;;
16660;SDS011;8444;52.012;5.048;2024-02-26T07:11:52;17.30;;;9.00;;
16660;SDS011;8444;52.012;5.048;2024-02-26T07:14:17;16.87;;;9.20;;
16660;SDS011;8444;52.012;5.048;2024-02-26T07:16:42;18.37;;;9.53;;
16660;SDS011;8444;52.012;5.048;2024-02-26T07:19:08;19.33;;;11.30;;
16660;SDS011;8444;52.012;5.048;2024-02-26T07:21:33;22.40;;;12.13;;
16660;SDS011;8444;52.012;5.048;2024-02-26T07:23:59;22.90;;;11.80;;
16660;SDS011;8444;52.012;5.048;2024-02-26T07:26:24;21.30;;;11.40;;
16660;SDS011;8444;52.012;5.048;2024-02-26T07:28:51;23.40;;;11.87;;
16660;SDS011;8444;52.012;5.048;2024-02-26T07:31:17;22.83;;;11.07;;
16660;SDS011;8444;52.012;5.048;2024-02-26T07:33:42;27.47;;;13.27;;
16660;SDS011;8444;52.012;5.048;2024-02-26T07:36:07;24.20;;;12.43;;
16660;SDS011;8444;52.012;5.048;2024-02-26T07:38:32;24.17;;;12.17;;
16660;SDS011;8444;52.012;5.048;2024-02-26T07:40:58;26.50;;;13.50;;
16660;SDS011;8444;52.012;5.048;2024-02-26T07:43:23;25.70;;;12.77;;
16660;SDS011;8444;52.012;5.048;2024-02-26T07:45:48;26.00;;;14.10;;
16660;SDS011;8444;52.012;5.048;2024-02-26T07:48:13;30.23;;;15.37;;
16660;SDS011;8444;52.012;5.048;2024-02-26T07:50:39;27.67;;;14.57;;
16660;SDS011;8444;52.012;5.048;2024-02-26T07:53:05;23.70;;;13.20;;
16660;SDS011;8444;52.012;5.048;2024-02-26T07:55:30;29.93;;;15.67;;
16660;SDS011;8444;52.012;5.048;2024-02-26T07:57:56;28.37;;;13.27;;
16660;SDS011;8444;52.012;5.048;2024-02-26T08:00:21;28.97;;;14.17;;
16660;SDS011;8444;52.012;5.048;2024-02-26T08:02:46;24.23;;;13.13;;
16660;SDS011;8444;52.012;5.048;2024-02-26T08:05:12;26.00;;;14.63;;
16660;SDS011;8444;52.012;5.048;2024-02-26T08:10:12;24.67;;;14.23;;
16660;SDS011;8444;52.012;5.048;2024-02-26T08:12:38;26.00;;;13.77;;
16660;SDS011;8444;52.012;5.048;2024-02-26T08:15:03;24.93;;;14.27;;
16660;SDS011;8444;52.012;5.048;2024-02-26T08:17:28;26.07;;;14.20;;
16660;SDS011;8444;52.012;5.048;2024-02-26T08:19:54;27.90;;;14.23;;
16660;SDS011;8444;52.012;5.048;2024-02-26T08:22:19;21.27;;;13.57;;
16660;SDS011;8444;52.012;5.048;2024-02-26T08:24:44;25.83;;;13.40;;
16660;SDS011;8444;52.012;5.048;2024-02-26T08:27:09;22.70;;;12.40;;
16660;SDS011;8444;52.012;5.048;2024-02-26T08:29:35;21.90;;;13.37;;
16660;SDS011;8444;52.012;5.048;2024-02-26T08:32:00;20.60;;;11.93;;
16660;SDS011;8444;52.012;5.048;2024-02-26T08:34:25;19.67;;;12.00;;
16660;SDS011;8444;52.012;5.048;2024-02-26T08:36:51;17.10;;;10.83;;
16660;SDS011;8444;52.012;5.048;2024-02-26T08:39:16;18.93;;;11.27;;
16660;SDS011;8444;52.012;5.048;2024-02-26T08:41:42;19.57;;;10.37;;
16660;SDS011;8444;52.012;5.048;2024-02-26T08:44:07;19.17;;;10.27;;
16660;SDS011;8444;52.012;5.048;2024-02-26T08:46:33;17.73;;;10.00;;
16660;SDS011;8444;52.012;5.048;2024-02-26T08:48:58;15.40;;;10.00;;
16660;SDS011;8444;52.012;5.048;2024-02-26T08:51:23;14.37;;;9.20;;
16660;SDS011;8444;52.012;5.048;2024-02-26T08:53:48;16.83;;;10.13;;
16660;SDS011;8444;52.012;5.048;2024-02-26T08:56:15;14.33;;;9.03;;
16660;SDS011;8444;52.012;5.048;2024-02-26T08:58:42;16.53;;;9.17;;
16660;SDS011;8444;52.012;5.048;2024-02-26T09:01:07;17.10;;;9.30;;
16660;SDS011;8444;52.012;5.048;2024-02-26T09:03:32;13.63;;;9.23;;
16660;SDS011;8444;52.012;5.048;2024-02-26T09:05:57;14.63;;;8.63;;
16660;SDS011;8444;52.012;5.048;2024-02-26T09:08:23;12.13;;;8.23;;
16660;SDS011;8444;52.012;5.048;2024-02-26T09:10:49;14.50;;;8.87;;
16660;SDS011;8444;52.012;5.048;2024-02-26T09:13:14;13.37;;;8.57;;
16660;SDS011;8444;52.012;5.048;2024-02-26T09:15:39;10.77;;;6.90;;
16660;SDS011;8444;52.012;5.048;2024-02-26T09:18:04;11.93;;;7.83;;
16660;SDS011;8444;52.012;5.048;2024-02-26T09:20:30;11.17;;;7.97;;
16660;SDS011;8444;52.012;5.048;2024-02-26T09:22:55;10.87;;;7.80;;
16660;SDS011;8444;52.012;5.048;2024-02-26T09:25:21;11.10;;;7.77;;
16660;SDS011;8444;52.012;5.048;2024-02-26T09:27:46;11.07;;;7.13;;
16660;SDS011;8444;52.012;5.048;2024-02-26T09:30:11;11.97;;;7.40;;
16660;SDS011;8444;52.012;5.048;2024-02-26T09:32:37;12.73;;;6.70;;
16660;SDS011;8444;52.012;5.048;2024-02-26T09:35:02;11.93;;;7.23;;
16660;SDS011;8444;52.012;5.048;2024-02-26T09:37:28;11.47;;;7.00;;
16660;SDS011;8444;52.012;5.048;2024-02-26T09:39:53;10.97;;;6.83;;
16660;SDS011;8444;52.012;5.048;2024-02-26T09:42:19;13.37;;;6.77;;
16660;SDS011;8444;52.012;5.048;2024-02-26T09:44:44;11.50;;;7.10;;
16660;SDS011;8444;52.012;5.048;2024-02-26T09:47:10;13.60;;;6.90;;
16660;SDS011;8444;52.012;5.048;2024-02-26T09:49:36;9.10;;;6.37;;
16660;SDS011;8444;52.012;5.048;2024-02-26T09:52:02;11.00;;;6.43;;
16660;SDS011;8444;52.012;5.048;2024-02-26T09:54:28;9.60;;;6.13;;
16660;SDS011;8444;52.012;5.048;2024-02-26T09:56:54;10.37;;;6.20;;
16660;SDS011;8444;52.012;5.048;2024-02-26T09:59:23;7.93;;;5.63;;
16660;SDS011;8444;52.012;5.048;2024-02-26T10:01:48;9.83;;;5.97;;
16660;SDS011;8444;52.012;5.048;2024-02-26T10:04:14;10.47;;;5.80;;
16660;SDS011;8444;52.012;5.048;2024-02-26T10:06:39;10.43;;;6.27;;
16660;SDS011;8444;52.012;5.048;2024-02-26T10:09:05;10.30;;;5.97;;
16660;SDS011;8444;52.012;5.048;2024-02-26T10:11:32;9.63;;;6.03;;
16660;SDS011;8444;52.012;5.048;2024-02-26T10:13:57;9.83;;;5.83;;
16660;SDS011;8444;52.012;5.048;2024-02-26T10:16:23;8.57;;;5.03;;
16660;SDS011;8444;52.012;5.048;2024-02-26T10:18:49;12.30;;;6.17;;
16660;SDS011;8444;52.012;5.048;2024-02-26T10:21:21;6.90;;;4.67;;
16660;SDS011;8444;52.012;5.048;2024-02-26T10:23:46;7.87;;;5.30;;
16660;SDS011;8444;52.012;5.048;2024-02-26T10:26:18;10.00;;;6.00;;
16660;SDS011;8444;52.012;5.048;2024-02-26T10:28:44;8.80;;;5.40;;
16660;SDS011;8444;52.012;5.048;2024-02-26T10:31:09;10.00;;;5.93;;
16660;SDS011;8444;52.012;5.048;2024-02-26T10:33:35;7.47;;;5.30;;
16660;SDS011;8444;52.012;5.048;2024-02-26T10:36:01;8.17;;;5.00;;
16660;SDS011;8444;52.012;5.048;2024-02-26T10:38:26;8.00;;;5.00;;
16660;SDS011;8444;52.012;5.048;2024-02-26T10:40:52;10.27;;;5.93;;
16660;SDS011;8444;52.012;5.048;2024-02-26T10:43:17;11.97;;;5.40;;
16660;SDS011;8444;52.012;5.048;2024-02-26T10:45:43;8.80;;;5.17;;
16660;SDS011;8444;52.012;5.048;2024-02-26T10:48:13;8.27;;;6.00;;
16660;SDS011;8444;52.012;5.048;2024-02-26T10:50:38;9.80;;;5.00;;
16660;SDS011;8444;52.012;5.048;2024-02-26T10:53:04;9.23;;;4.90;;
16660;SDS011;8444;52.012;5.048;2024-02-26T10:55:30;10.67;;;5.80;;
16660;SDS011;8444;52.012;5.048;2024-02-26T10:57:58;9.03;;;5.20;;
16660;SDS011;8444;52.012;5.048;2024-02-26T11:00:23;7.37;;;5.17;;
16660;SDS011;8444;52.012;5.048;2024-02-26T11:02:49;10.40;;;5.43;;
16660;SDS011;8444;52.012;5.048;2024-02-26T11:05:15;8.53;;;5.50;;
16660;SDS011;8444;52.012;5.048;2024-02-26T11:07:42;10.80;;;5.23;;
16660;SDS011;8444;52.012;5.048;2024-02-26T11:10:07;11.80;;;5.80;;
16660;SDS011;8444;52.012;5.048;2024-02-26T11:12:34;9.70;;;5.70;;
16660;SDS011;8444;52.012;5.048;2024-02-26T11:15:02;8.87;;;5.87;;
16660;SDS011;8444;52.012;5.048;2024-02-26T11:17:27;8.67;;;5.97;;
16660;SDS011;8444;52.012;5.048;2024-02-26T11:19:56;8.60;;;5.20;;
16660;SDS011;8444;52.012;5.048;2024-02-26T11:22:23;9.30;;;5.53;;
16660;SDS011;8444;52.012;5.048;2024-02-26T11:24:50;9.57;;;6.27;;
16660;SDS011;8444;52.012;5.048;2024-02-26T11:27:16;10.03;;;5.90;;
16660;SDS011;8444;52.012;5.048;2024-02-26T11:29:49;10.93;;;5.97;;
16660;SDS011;8444;52.012;5.048;2024-02-26T11:32:15;8.77;;;5.53;;
16660;SDS011;8444;52.012;5.048;2024-02-26T11:34:41;8.83;;;5.20;;
16660;SDS011;8444;52.012;5.048;2024-02-26T11:37:11;8.50;;;5.20;;
16660;SDS011;8444;52.012;5.048;2024-02-26T11:39:36;8.07;;;4.90;;
16660;SDS011;8444;52.012;5.048;2024-02-26T11:42:06;8.00;;;5.77;;
16660;SDS011;8444;52.012;5.048;2024-02-26T11:44:31;9.30;;;5.60;;
16660;SDS011;8444;52.012;5.048;2024-02-26T11:46:56;8.53;;;5.17;;
16660;SDS011;8444;52.012;5.048;2024-02-26T11:51:54;5.70;;;4.43;;
16660;SDS011;8444;52.012;5.048;2024-02-26T11:57:27;8.60;;;5.20;;
16660;SDS011;8444;52.012;5.048;2024-02-26T11:59:56;7.43;;;4.70;;
16660;SDS011;8444;52.012;5.048;2024-02-26T12:05:12;7.63;;;5.70;;
16660;SDS011;8444;52.012;5.048;2024-02-26T12:07:41;8.97;;;5.30;;
16660;SDS011;8444;52.012;5.048;2024-02-26T12:10:14;9.03;;;4.80;;
16660;SDS011;8444;52.012;5.048;2024-02-26T12:12:41;8.17;;;5.37;;
16660;SDS011;8444;52.012;5.048;2024-02-26T12:15:06;8.57;;;5.43;;
16660;SDS011;8444;52.012;5.048;2024-02-26T12:17:33;7.60;;;5.30;;
16660;SDS011;8444;52.012;5.048;2024-02-26T12:20:08;10.17;;;5.87;;
16660;SDS011;8444;52.012;5.048;2024-02-26T12:22:34;8.67;;;4.83;;
16660;SDS011;8444;52.012;5.048;2024-02-26T12:25:02;11.07;;;5.50;;
16660;SDS011;8444;52.012;5.048;2024-02-26T12:27:28;8.33;;;5.67;;
16660;SDS011;8444;52.012;5.048;2024-02-26T12:29:53;8.07;;;4.70;;
16660;SDS011;8444;52.012;5.048;2024-02-26T12:32:18;9.60;;;5.30;;
16660;SDS011;8444;52.012;5.048;2024-02-26T12:34:43;8.90;;;5.43;;
16660;SDS011;8444;52.012;5.048;2024-02-26T12:37:09;7.73;;;4.83;;
16660;SDS011;8444;52.012;5.048;2024-02-26T12:39:36;7.77;;;4.87;;
16660;SDS011;8444;52.012;5.048;2024-02-26T12:42:01;8.43;;;6.50;;
16660;SDS011;8444;52.012;5.048;2024-02-26T12:44:27;7.77;;;4.97;;
16660;SDS011;8444;52.012;5.048;2024-02-26T12:47:02;7.67;;;5.13;;
16660;SDS011;8444;52.012;5.048;2024-02-26T12:49:30;10.40;;;5.03;;
16660;SDS011;8444;52.012;5.048;2024-02-26T12:51:56;6.13;;;5.33;;
16660;SDS011;8444;52.012;5.048;2024-02-26T12:54:32;7.90;;;4.87;;
16660;SDS011;8444;52.012;5.048;2024-02-26T12:56:58;8.20;;;5.10;;
16660;SDS011;8444;52.012;5.048;2024-02-26T12:59:24;9.10;;;5.43;;
16660;SDS011;8444;52.012;5.048;2024-02-26T13:01:49;7.63;;;4.90;;
16660;SDS011;8444;52.012;5.048;2024-02-26T13:04:15;9.50;;;5.27;;
16660;SDS011;8444;52.012;5.048;2024-02-26T13:06:40;7.13;;;5.20;;
16660;SDS011;8444;52.012;5.048;2024-02-26T13:09:05;7.30;;;4.87;;
16660;SDS011;8444;52.012;5.048;2024-02-26T13:11:31;7.33;;;4.50;;
16660;SDS011;8444;52.012;5.048;2024-02-26T13:13:56;8.93;;;5.00;;
16660;SDS011;8444;52.012;5.048;2024-02-26T13:16:23;8.67;;;5.50;;
16660;SDS011;8444;52.012;5.048;2024-02-26T13:18:48;7.27;;;4.83;;
16660;SDS011;8444;52.012;5.048;2024-02-26T13:21:14;6.60;;;4.60;;
16660;SDS011;8444;52.012;5.048;2024-02-26T13:23:40;8.30;;;4.83;;
16660;SDS011;8444;52.012;5.048;2024-02-26T13:26:06;6.33;;;4.90;;
16660;SDS011;8444;52.012;5.048;2024-02-26T13:28:31;10.23;;;5.57;;
16660;SDS011;8444;52.012;5.048;2024-02-26T13:30:57;6.33;;;4.20;;
16660;SDS011;8444;52.012;5.048;2024-02-26T13:33:23;8.67;;;5.07;;
16660;SDS011;8444;52.012;5.048;2024-02-26T13:35:48;7.37;;;4.17;;
16660;SDS011;8444;52.012;5.048;2024-02-26T13:38:14;7.40;;;4.93;;
16660;SDS011;8444;52.012;5.048;2024-02-26T13:40:39;8.10;;;5.07;;
16660;SDS011;8444;52.012;5.048;2024-02-26T13:43:04;9.03;;;4.60;;
16660;SDS011;8444;52.012;5.048;2024-02-26T13:45:30;6.40;;;4.57;;
16660;SDS011;8444;52.012;5.048;2024-02-26T13:47:59;5.80;;;4.00;;
16660;SDS011;8444;52.012;5.048;2024-02-26T13:50:26;7.07;;;4.60;;
16660;SDS011;8444;52.012;5.048;2024-02-26T13:52:51;9.00;;;5.17;;
16660;SDS011;8444;52.012;5.048;2024-02-26T13:55:18;7.73;;;4.13;;
16660;SDS011;8444;52.012;5.048;2024-02-26T13:57:44;6.67;;;4.20;;
16660;SDS011;8444;52.012;5.048;2024-02-26T14:00:10;5.53;;;4.20;;
16660;SDS011;8444;52.012;5.048;2024-02-26T14:02:35;5.17;;;3.57;;
16660;SDS011;8444;52.012;5.048;2024-02-26T14:05:01;6.27;;;4.40;;
16660;SDS011;8444;52.012;5.048;2024-02-26T14:07:28;6.03;;;4.37;;
16660;SDS011;8444;52.012;5.048;2024-02-26T14:09:54;5.97;;;3.83;;
16660;SDS011;8444;52.012;5.048;2024-02-26T14:12:19;7.23;;;4.80;;
16660;SDS011;8444;52.012;5.048;2024-02-26T14:14:44;6.30;;;3.97;;
16660;SDS011;8444;52.012;5.048;2024-02-26T14:17:10;7.07;;;4.27;;
16660;SDS011;8444;52.012;5.048;2024-02-26T14:19:37;5.27;;;3.63;;
16660;SDS011;8444;52.012;5.048;2024-02-26T14:22:04;5.77;;;4.13;;
16660;SDS011;8444;52.012;5.048;2024-02-26T14:24:29;5.60;;;4.17;;
16660;SDS011;8444;52.012;5.048;2024-02-26T14:26:55;9.20;;;3.53;;
16660;SDS011;8444;52.012;5.048;2024-02-26T14:29:20;5.60;;;3.60;;
16660;SDS011;8444;52.012;5.048;2024-02-26T14:31:45;4.83;;;3.60;;
16660;SDS011;8444;52.012;5.048;2024-02-26T14:34:10;6.37;;;3.67;;
16660;SDS011;8444;52.012;5.048;2024-02-26T14:36:35;4.97;;;3.23;;
16660;SDS011;8444;52.012;5.048;2024-02-26T14:39:01;6.83;;;3.50;;
16660;SDS011;8444;52.012;5.048;2024-02-26T14:41:26;4.30;;;3.33;;
16660;SDS011;8444;52.012;5.048;2024-02-26T14:43:51;4.63;;;3.07;;
16660;SDS011;8444;52.012;5.048;2024-02-26T14:46:16;4.73;;;3.63;;
16660;SDS011;8444;52.012;5.048;2024-02-26T14:48:42;4.17;;;3.40;;
16660;SDS011;8444;52.012;5.048;2024-02-26T14:51:07;4.57;;;3.63;;
16660;SDS011;8444;52.012;5.048;2024-02-26T14:53:33;4.97;;;3.53;;
16660;SDS011;8444;52.012;5.048;2024-02-26T14:55:58;5.87;;;3.70;;